Airfield :
LOGIN :

Register | Disclaimer

   EN    FR    IT 

 










Legend :    VFR   Marginal VFR   IFR   Intensive IFR   Very Intensive IFR
Visi :
Ceiling :
>= 8 km
>= 3000ft
5 to 8 km
1000 to 3000 ft
1500m to 5 km
500 to 1000 ft
800 to 1500m
200 to 500 ft
< 800m
< 200 ft
Symbols :   Thunderstorms  Fog  Heavy snow  Heavy precipitations  Wind > 20 kt
SIGMETs :     Misc.  Thunderstorms  Icing  Turbulence  Mountain Waves  Volcanic Ashes






- Airport Elevation : 614 ft
- IATA code : CRL


EBCI - Charleroi

CURRENT METAR :
  • 200220Z 21016KT 9999 -RA BKN030 05/02 Q1004 TEMPO 20015G25KT

EXPIRED METARs :
  • 200150Z 21018G28KT 9999 BKN030 06/02 Q1004 NOSIG
  • 200120Z 20019G29KT 9999 BKN030 05/02 Q1004 NOSIG
  • 200050Z 20019G30KT 9999 BKN030 05/02 Q1004 NOSIG
  • 200020Z 20018KT 170V230 9999 BKN030 05/02 Q1004 NOSIG

TAF TAF EBCI
Valid from the 20 at 00:00 until the 21 at 06:00 UTC


192306Z 2000/2106 19016G28KT 9999 FEW011 SCT030
TEMPO 2101/2106 21022G38KT 3000 RA SHRA SCT008 BKN012TCU



MET'MAP, your aeronautical weather chart ! - Copyright ORBIFLY December 2007 - Disclaimer

ORBIFLY MET'MAP TEAM :

Programming & Development : Alexandra Zaïnal
Concept & original design : Baudouin d'Aumeries
Assistance for programming : Marc-Olivier Méhu
Technical & hardware support : Manuel Goepfert

Contact : metmap@orbifly.com




SOURCES & CREDITS :

   NOAA